Time;durP1;ratioP1;P1;durP2;ratioP2;P2;SDS_P1;SDS_P2;PMS_P1;PMS_P2;Temp;Humidity;BMP_temperature;BMP_pressure;BME280_temperature;BME280_humidity;BME280_pressure;Samples;Min_cycle;Max_cycle;Signal;HPM_P1;HPM_P2
2021/01/13 14:13:54;;;;;;;9.10;2.50;;;10.90;99.90;;;;;;5135421;27;20791;-67
2021/01/13 14:16:20;;;;;;;4.47;1.98;;;11.50;99.90;;;;;;5135530;28;20261;-67
2021/01/13 14:18:46;;;;;;;8.27;1.92;;;11.40;99.90;;;;;;5135272;28;20508;-67
2021/01/13 14:21:14;;;;;;;4.15;1.75;;;11.50;99.90;;;;;;5129414;28;20034;-67
2021/01/13 14:23:41;;;;;;;9.85;2.88;;;11.40;99.90;;;;;;5135677;27;20027;-67
2021/01/13 14:26:07;;;;;;;5.47;1.88;;;11.60;99.90;;;;;;5135343;27;20023;-67
2021/01/13 14:28:33;;;;;;;7.82;2.72;;;11.50;99.90;;;;;;5135680;27;20020;-67
2021/01/13 14:30:59;;;;;;;6.45;1.85;;;11.60;99.90;;;;;;5135455;27;20019;-67
2021/01/13 14:33:25;;;;;;;10.25;3.20;;;11.40;99.90;;;;;;5135014;27;20038;-67
2021/01/13 14:35:51;;;;;;;5.95;2.17;;;11.50;99.90;;;;;;5135252;27;20407;-67
2021/01/13 14:38:16;;;;;;;8.73;2.08;;;11.30;99.90;;;;;;5118321;27;20020;-67
2021/01/13 14:40:43;;;;;;;8.52;1.95;;;11.30;99.90;;;;;;5133713;28;20019;-67
2021/01/13 14:43:09;;;;;;;7.20;2.85;;;11.40;99.90;;;;;;5135017;27;20035;-67
2021/01/13 14:45:34;;;;;;;11.73;2.22;;;11.70;99.90;;;;;;5135036;27;20076;-67
2021/01/13 14:48:00;;;;;;;8.57;1.60;;;11.50;99.90;;;;;;5135458;27;20106;-67
2021/01/13 14:50:27;;;;;;;5.90;1.92;;;11.50;99.90;;;;;;5134581;27;20394;-67
2021/01/13 14:52:52;;;;;;;10.05;2.55;;;11.50;99.90;;;;;;5135110;27;20047;-67
2021/01/13 14:55:18;;;;;;;5.60;1.80;;;11.50;99.90;;;;;;5134966;28;20031;-67
2021/01/13 14:57:44;;;;;;;6.00;1.60;;;11.50;99.90;;;;;;5135062;28;20020;-67
2021/01/13 15:00:10;;;;;;;8.68;2.30;;;11.40;99.90;;;;;;5134770;27;20034;-67
2021/01/13 15:02:36;;;;;;;5.07;1.80;;;11.40;99.90;;;;;;5134817;27;20114;-67
2021/01/13 15:05:06;;;;;;;7.93;2.50;;;11.40;99.90;;;;;;5121314;27;20028;-67
2021/01/13 15:07:32;;;;;;;4.68;1.80;;;11.20;99.90;;;;;;5135022;27;20489;-67
2021/01/13 15:09:58;;;;;;;9.95;2.38;;;11.20;99.90;;;;;;5134729;27;20024;-67
2021/01/13 15:12:23;;;;;;;3.80;1.83;;;11.20;99.90;;;;;;5134605;27;20043;-67
2021/01/13 15:14:49;;;;;;;9.93;3.03;;;11.10;99.90;;;;;;5120769;27;20544;-67
2021/01/13 15:17:15;;;;;;;;;;;11.30;99.90;;;;;;5121520;28;20386;-67
2021/01/13 15:19:41;;;;;;;10.77;1.83;;;10.90;99.90;;;;;;5120422;28;19903;-67
2021/01/13 15:22:06;;;;;;;;;;;10.80;99.90;;;;;;5121274;28;20023;-67
2021/01/13 15:24:35;;;;;;;7.85;2.47;;;11.00;99.90;;;;;;5120708;28;19908;-67
2021/01/13 15:27:04;;;;;;;11.93;2.50;;;10.70;99.90;;;;;;5120852;27;20026;-67
2021/01/13 15:29:30;;;;;;;9.35;2.47;;;10.80;99.90;;;;;;5120531;28;20027;-67
2021/01/13 15:31:56;;;;;;;10.18;3.05;;;10.80;99.90;;;;;;5120911;28;20023;-67
2021/01/13 15:34:22;;;;;;;11.93;3.85;;;10.70;99.90;;;;;;5119956;28;20094;-67
2021/01/13 15:36:48;;;;;;;8.23;3.08;;;10.80;99.90;;;;;;5120400;28;20051;-67
2021/01/13 15:39:15;;;;;;;10.13;3.30;;;10.60;99.90;;;;;;5117547;28;20028;-67
2021/01/13 15:41:41;;;;;;;6.05;2.80;;;10.40;99.90;;;;;;5109625;28;20034;-67
2021/01/13 15:44:07;;;;;;;9.10;3.13;;;10.70;99.90;;;;;;5120097;28;20471;-67
2021/01/13 15:46:33;;;;;;;8.75;3.30;;;10.50;99.90;;;;;;5120122;28;20787;-67
2021/01/13 15:48:59;;;;;;;9.23;3.65;;;10.50;99.90;;;;;;5119767;28;20421;-67
2021/01/13 15:51:25;;;;;;;14.23;3.40;;;10.50;99.90;;;;;;5120234;28;20028;-67
2021/01/13 15:53:52;;;;;;;10.48;3.38;;;10.50;99.90;;;;;;5120151;28;20387;-67
2021/01/13 15:56:18;;;;;;;14.20;5.40;;;10.50;99.90;;;;;;5120016;28;20028;-67
2021/01/13 15:58:51;;;;;;;11.73;3.83;;;10.40;99.90;;;;;;5119854;28;20031;-67
2021/01/13 16:01:18;;;;;;;11.45;3.70;;;10.40;99.90;;;;;;5120327;28;20455;-67
2021/01/13 16:03:44;;;;;;;13.32;3.30;;;10.50;99.90;;;;;;5119720;28;20023;-67
2021/01/13 16:06:14;;;;;;;8.63;3.83;;;10.30;99.90;;;;;;5106017;28;20083;-67
2021/01/13 16:08:40;;;;;;;8.38;3.60;;;10.40;99.90;;;;;;5120000;28;20024;-67
2021/01/13 16:11:06;;;;;;;9.27;3.30;;;10.40;99.90;;;;;;5119675;28;20015;-67
2021/01/13 16:13:34;;;;;;;5.78;3.25;;;10.30;99.90;;;;;;5119373;28;20052;-67
2021/01/13 16:16:00;;;;;;;7.57;3.50;;;10.30;99.90;;;;;;5119574;28;20027;-67
2021/01/13 16:18:26;;;;;;;11.23;4.13;;;10.60;99.90;;;;;;5119399;28;20026;-67
2021/01/13 16:20:52;;;;;;;13.60;4.70;;;10.30;99.90;;;;;;5119428;28;20023;-67
2021/01/13 16:23:19;;;;;;;8.48;3.67;;;10.30;99.90;;;;;;5119679;28;20088;-67
2021/01/13 16:25:45;;;;;;;10.98;3.90;;;10.20;99.90;;;;;;5118371;28;20020;-67
2021/01/13 16:28:11;;;;;;;5.78;2.20;;;10.20;99.90;;;;;;5119663;28;20107;-67
2021/01/13 16:30:37;;;;;;;11.07;2.97;;;10.10;99.90;;;;;;5119242;28;20051;-67
2021/01/13 16:33:03;;;;;;;;;;;10.10;99.90;;;;;;5119659;28;20023;-67
2021/01/13 16:35:29;;;;;;;10.93;2.70;;;10.20;99.90;;;;;;5119069;28;19904;-67
2021/01/13 16:37:56;;;;;;;7.75;3.25;;;10.00;99.90;;;;;;5119509;28;20100;-67
2021/01/13 16:40:23;;;;;;;13.70;5.53;;;10.00;99.90;;;;;;5119279;28;20054;-67
2021/01/13 16:42:51;;;;;;;12.80;3.97;;;10.20;99.90;;;;;;5119224;27;20382;-67
2021/01/13 16:45:18;;;;;;;11.70;4.65;;;10.20;99.90;;;;;;5118962;28;20024;-67
2021/01/13 16:47:44;;;;;;;10.70;3.05;;;10.10;99.90;;;;;;5119044;28;20020;-67
2021/01/13 16:50:11;;;;;;;;;;;10.10;99.90;;;;;;5119304;28;20074;-67
2021/01/13 16:52:37;;;;;;;11.38;3.92;;;10.00;99.90;;;;;;5118832;28;19907;-67
2021/01/13 16:55:05;;;;;;;11.85;4.78;;;10.00;99.90;;;;;;5119014;28;20023;-67
2021/01/13 16:57:33;;;;;;;16.02;3.90;;;10.00;99.90;;;;;;5118934;28;20394;-67
2021/01/13 17:00:11;;;;;;;13.00;3.10;;;9.90;99.90;;;;;;5119106;28;20026;-67
2021/01/13 17:02:50;;;;;;;10.85;3.13;;;9.90;99.90;;;;;;5118470;28;20534;-67
2021/01/13 17:05:18;;;;;;;10.10;2.60;;;10.00;99.90;;;;;;5106552;28;20479;-67
2021/01/13 17:07:45;;;;;;;12.65;2.67;;;10.10;99.90;;;;;;5116863;28;20024;-67
2021/01/13 17:10:13;;;;;;;9.48;3.65;;;10.10;99.90;;;;;;5118609;28;20375;-67
2021/01/13 17:12:41;;;;;;;5.15;2.67;;;10.00;99.90;;;;;;5118462;28;20080;-67
2021/01/13 17:15:09;;;;;;;9.90;2.95;;;10.00;99.90;;;;;;5118601;28;20022;-67
2021/01/13 17:17:36;;;;;;;9.32;2.67;;;10.00;99.90;;;;;;5118361;28;20079;-67
2021/01/13 17:20:16;;;;;;;12.32;2.53;;;10.00;99.90;;;;;;5118172;28;20020;-67
2021/01/13 17:22:46;;;;;;;10.57;2.47;;;9.80;99.90;;;;;;5118451;28;20131;-67
2021/01/13 17:25:18;;;;;;;11.20;3.95;;;9.90;99.90;;;;;;5118375;28;20019;-67
2021/01/13 17:27:46;;;;;;;8.68;3.80;;;9.90;99.90;;;;;;5118535;28;20023;-67
2021/01/13 17:30:17;;;;;;;9.82;3.78;;;9.90;99.90;;;;;;5118407;28;20027;-67
2021/01/13 17:32:43;;;;;;;9.95;4.00;;;10.00;99.90;;;;;;5118338;28;20445;-67
2021/01/13 17:35:14;;;;;;;8.95;3.42;;;10.00;99.90;;;;;;5117779;28;20054;-67
2021/01/13 17:37:42;;;;;;;12.05;3.00;;;9.90;99.90;;;;;;5118082;28;20027;-67
2021/01/13 17:40:11;;;;;;;16.20;4.30;;;10.00;99.90;;;;;;5118042;28;20023;-67
2021/01/13 17:42:37;;;;;;;12.38;4.18;;;9.80;99.90;;;;;;5117930;28;20023;-67
2021/01/13 17:45:05;;;;;;;5.18;2.72;;;10.00;99.90;;;;;;5117956;28;20043;-67
2021/01/13 17:47:36;;;;;;;12.25;3.78;;;9.90;99.90;;;;;;5118054;28;20030;-67
2021/01/13 17:50:04;;;;;;;12.02;3.78;;;9.90;99.90;;;;;;5117661;28;20555;-67
2021/01/13 17:52:41;;;;;;;10.63;3.78;;;9.90;99.90;;;;;;5118059;28;20411;-67
2021/01/13 17:55:08;;;;;;;12.20;3.47;;;9.90;99.90;;;;;;5117840;28;20394;-67
2021/01/13 17:57:34;;;;;;;6.05;3.90;;;9.70;99.90;;;;;;5117947;28;20022;-67
2021/01/13 17:59:59;;;;;;;;;;;9.80;99.90;;;;;;5118601;28;20110;-67
2021/01/13 18:02:36;;;;;;;15.40;3.58;;;9.90;99.90;;;;;;5118071;28;19946;-67
2021/01/13 18:05:12;;;;;;;10.50;3.13;;;9.50;99.90;;;;;;5108024;28;20488;-67
2021/01/13 18:07:40;;;;;;;12.88;3.72;;;9.90;99.90;;;;;;5115466;28;20020;-67
2021/01/13 18:10:14;;;;;;;16.13;3.35;;;9.80;99.90;;;;;;5117786;28;20027;-67
2021/01/13 18:12:42;;;;;;;8.57;2.67;;;9.80;99.90;;;;;;5117392;28;20141;-67
2021/01/13 18:15:24;;;;;;;11.00;2.88;;;9.80;99.90;;;;;;5117748;28;20022;-67
2021/01/13 18:18:11;;;;;;;14.25;2.22;;;10.00;99.90;;;;;;5117835;28;20027;-67
2021/01/13 18:20:39;;;;;;;12.65;2.50;;;9.80;99.90;;;;;;5117504;28;20065;-67
2021/01/13 18:23:11;;;;;;;7.65;2.50;;;9.70;99.90;;;;;;5117900;28;20118;-67
2021/01/13 18:25:36;;;;;;;10.13;3.30;;;9.80;99.90;;;;;;5117569;28;20023;-67
2021/01/13 18:28:02;;;;;;;;;;;9.70;99.90;;;;;;5118352;28;20023;-67
2021/01/13 18:30:28;;;;;;;11.85;3.25;;;9.70;99.90;;;;;;5117540;28;19994;-67
2021/01/13 18:32:56;;;;;;;20.25;3.35;;;9.70;99.90;;;;;;5117588;28;20028;-67
2021/01/13 18:35:24;;;;;;;9.38;3.35;;;9.70;99.90;;;;;;5117384;28;20024;-67
2021/01/13 18:37:59;;;;;;;11.88;2.70;;;9.60;99.90;;;;;;5117666;28;20023;-67
2021/01/13 18:40:28;;;;;;;8.10;2.47;;;9.70;99.90;;;;;;5117773;28;20387;-67
2021/01/13 18:43:04;;;;;;;12.52;3.38;;;9.60;99.90;;;;;;5117450;28;20028;-67
2021/01/13 18:45:32;;;;;;;12.57;3.50;;;9.70;99.90;;;;;;5117550;28;20024;-67
2021/01/13 18:47:58;;;;;;;10.43;3.40;;;9.60;99.90;;;;;;5117291;28;20041;-67
2021/01/13 18:50:25;;;;;;;8.85;2.92;;;9.60;99.90;;;;;;5121582;28;20027;-67
2021/01/13 18:52:53;;;;;;;7.10;2.55;;;9.60;99.90;;;;;;5121374;28;20080;-67
2021/01/13 18:55:19;;;;;;;9.10;2.50;;;9.60;99.90;;;;;;5121534;28;20043;-67
2021/01/13 18:57:44;;;;;;;;;;;9.60;99.90;;;;;;5121588;28;20019;-67
2021/01/13 19:00:12;;;;;;;12.80;2.83;;;9.80;99.90;;;;;;5121657;28;19904;-67
2021/01/13 19:02:37;;;;;;;7.35;2.58;;;9.60;99.90;;;;;;5121171;28;20491;-67
2021/01/13 19:05:04;;;;;;;;;;;9.90;99.90;;;;;;5111189;28;20043;-67
2021/01/13 19:07:30;;;;;;;13.02;3.03;;;9.90;99.90;;;;;;5117354;28;19915;-67
2021/01/13 19:09:56;;;;;;;7.95;2.60;;;9.80;99.90;;;;;;5121073;27;20024;-67
2021/01/13 19:12:22;;;;;;;;;;;9.80;99.90;;;;;;5121064;28;20081;-67
2021/01/13 19:14:48;;;;;;;12.82;2.90;;;9.80;99.90;;;;;;5120990;28;20375;-67
2021/01/13 19:17:14;;;;;;;;;;;9.80;99.90;;;;;;5121487;28;20050;-67
2021/01/13 19:19:41;;;;;;;7.47;2.95;;;9.80;99.90;;;;;;5120622;28;19908;-67
2021/01/13 19:22:09;;;;;;;6.90;2.78;;;9.70;99.90;;;;;;5120684;27;20111;-67
2021/01/13 19:24:35;;;;;;;6.35;2.67;;;9.80;99.90;;;;;;5120796;28;20043;-67
2021/01/13 19:27:02;;;;;;;10.45;2.95;;;9.60;99.90;;;;;;5120770;28;20137;-67
2021/01/13 19:29:28;;;;;;;9.48;3.45;;;9.70;99.90;;;;;;5120674;28;20560;-67
2021/01/13 19:31:55;;;;;;;;;;;9.80;99.90;;;;;;5120969;28;20035;-67
2021/01/13 19:34:21;;;;;;;;;;;9.60;99.90;;;;;;5120529;28;19911;-67
2021/01/13 19:36:50;;;;;;;13.30;3.38;;;9.60;99.90;;;;;;5120801;28;19931;-67
2021/01/13 19:39:17;;;;;;;13.27;3.55;;;9.60;99.90;;;;;;5120380;28;20027;-67
2021/01/13 19:41:43;;;;;;;14.13;4.93;;;9.60;99.90;;;;;;5120194;28;20031;-67
2021/01/13 19:44:13;;;;;;;7.50;3.60;;;9.50;99.90;;;;;;5120281;28;20663;-67
2021/01/13 19:46:40;;;;;;;10.52;3.30;;;9.60;99.90;;;;;;5120367;28;20103;-67
2021/01/13 19:49:07;;;;;;;8.52;3.22;;;9.50;99.90;;;;;;5119911;28;20018;-67
2021/01/13 19:51:33;;;;;;;6.03;2.97;;;9.50;99.90;;;;;;5119983;28;20032;-67
2021/01/13 19:53:58;;;;;;;;;;;9.60;99.90;;;;;;5120576;28;20510;-67
2021/01/13 19:56:24;;;;;;;13.32;5.07;;;9.50;99.90;;;;;;5120143;28;19910;-67
2021/01/13 19:58:50;;;;;;;;;;;9.60;99.90;;;;;;5120676;28;20024;-67
2021/01/13 20:01:15;;;;;;;11.65;3.33;;;9.60;99.90;;;;;;5119821;28;19910;-67
2021/01/13 20:03:41;;;;;;;;;;;9.60;99.90;;;;;;5120027;28;20095;-67
2021/01/13 20:06:07;;;;;;;9.95;3.60;;;9.60;99.90;;;;;;5106103;28;20272;-67
2021/01/13 20:08:33;;;;;;;10.90;4.97;;;9.50;99.90;;;;;;5120069;28;20024;-67
2021/01/13 20:10:58;;;;;;;;;;;9.50;99.90;;;;;;5120003;28;20019;-67
2021/01/13 20:13:24;;;;;;;10.68;4.47;;;9.40;99.90;;;;;;5119476;28;19916;-67
2021/01/13 20:15:50;;;;;;;12.57;4.53;;;9.60;99.90;;;;;;5119773;28;20023;-67
2021/01/13 20:18:16;;;;;;;;;;;9.40;99.90;;;;;;5119992;28;20027;-67
2021/01/13 20:20:42;;;;;;;14.57;4.72;;;9.40;99.90;;;;;;5119482;28;19910;-67
2021/01/13 20:23:08;;;;;;;12.93;4.18;;;9.40;99.90;;;;;;5119660;28;20066;-67
2021/01/13 20:25:34;;;;;;;;;;;9.40;99.90;;;;;;5119869;28;20019;-67
2021/01/13 20:28:04;;;;;;;20.88;4.60;;;9.30;99.90;;;;;;5119955;28;20327;-67
2021/01/13 20:30:32;;;;;;;10.40;5.30;;;9.10;99.90;;;;;;5119398;28;20016;-67
2021/01/13 20:32:59;;;;;;;15.93;4.90;;;9.40;99.90;;;;;;5119063;28;20483;-67
2021/01/13 20:35:26;;;;;;;7.65;3.47;;;9.30;99.90;;;;;;5119263;28;20092;-67
2021/01/13 20:37:52;;;;;;;10.80;4.07;;;9.30;99.90;;;;;;5119220;28;20106;-67
2021/01/13 20:40:22;;;;;;;13.00;4.63;;;9.20;99.90;;;;;;5119057;28;20107;-67
2021/01/13 20:42:56;;;;;;;10.20;4.97;;;9.40;99.90;;;;;;5119047;28;20023;-67
2021/01/13 20:45:23;;;;;;;14.35;4.70;;;9.30;99.90;;;;;;5118390;28;20393;-67
2021/01/13 20:47:49;;;;;;;19.65;7.22;;;9.30;99.90;;;;;;5118987;28;20019;-67
2021/01/13 20:50:15;;;;;;;6.15;4.00;;;9.20;99.90;;;;;;5119029;28;20020;-67
2021/01/13 20:52:45;;;;;;;;;;;9.30;99.90;;;;;;5119372;28;20023;-67
2021/01/13 20:55:11;;;;;;;11.63;3.72;;;9.20;99.90;;;;;;5119064;28;19911;-67
2021/01/13 20:57:39;;;;;;;10.57;3.90;;;9.30;99.90;;;;;;5118715;28;20495;-67
2021/01/13 21:00:07;;;;;;;7.63;2.70;;;9.20;99.90;;;;;;5118851;28;20487;-67
2021/01/13 21:02:35;;;;;;;9.55;2.80;;;9.20;99.90;;;;;;5118739;28;20031;-67
2021/01/13 21:05:05;;;;;;;11.23;3.00;;;9.10;99.90;;;;;;5108756;28;20047;-67
2021/01/13 21:07:31;;;;;;;8.05;3.33;;;9.20;99.90;;;;;;5115167;28;20027;-67
2021/01/13 21:09:56;;;;;;;;;;;9.10;99.90;;;;;;5119338;28;20020;-67
2021/01/13 21:12:22;;;;;;;12.98;3.60;;;9.10;99.90;;;;;;5118027;28;19931;-67
2021/01/13 21:14:48;;;;;;;;;;;9.10;99.90;;;;;;5119071;28;20051;-67
2021/01/13 21:17:14;;;;;;;5.07;3.05;;;9.10;99.90;;;;;;5118677;28;19908;-67
2021/01/13 21:19:40;;;;;;;;;;;9.10;99.90;;;;;;5118648;28;20073;-67
2021/01/13 21:22:06;;;;;;;10.07;2.13;;;9.30;99.90;;;;;;5118180;28;19922;-67
2021/01/13 21:24:32;;;;;;;;;;;9.00;99.90;;;;;;5119003;28;20479;-67
2021/01/13 21:27:00;;;;;;;7.47;2.33;;;9.10;99.90;;;;;;5118276;28;20384;-67
2021/01/13 21:29:27;;;;;;;14.57;3.28;;;9.10;99.90;;;;;;5118388;27;20415;-67
2021/01/13 21:31:54;;;;;;;8.30;2.88;;;9.10;99.90;;;;;;5118342;28;20024;-67
2021/01/13 21:34:20;;;;;;;6.75;2.78;;;9.10;99.90;;;;;;5117868;28;20501;-67
2021/01/13 21:36:47;;;;;;;7.38;3.33;;;9.20;99.90;;;;;;5118040;28;20023;-67
2021/01/13 21:39:13;;;;;;;12.30;4.38;;;9.00;99.90;;;;;;5118202;28;20023;-67
2021/01/13 21:41:47;;;;;;;5.60;2.92;;;9.20;99.90;;;;;;5118158;28;20080;-67
2021/01/13 21:44:14;;;;;;;10.57;3.33;;;9.10;99.90;;;;;;5118321;28;20034;-67
2021/01/13 21:46:53;;;;;;;8.50;2.83;;;9.20;99.90;;;;;;5117977;28;20067;-67
2021/01/13 21:49:20;;;;;;;7.70;2.85;;;9.10;99.90;;;;;;5117898;28;20076;-67
2021/01/13 21:51:48;;;;;;;6.55;3.13;;;9.10;99.90;;;;;;5118111;28;20383;-67
2021/01/13 21:54:16;;;;;;;7.57;3.55;;;9.10;99.90;;;;;;5118112;28;20114;-67
2021/01/13 21:56:42;;;;;;;10.82;2.95;;;9.20;99.90;;;;;;5118184;28;20024;-67
2021/01/13 21:59:08;;;;;;;;;;;9.00;99.90;;;;;;5118294;28;20035;-67
2021/01/13 22:01:34;;;;;;;9.57;3.58;;;9.00;99.90;;;;;;5118052;28;19960;-67
2021/01/13 22:03:59;;;;;;;;;;;9.20;99.90;;;;;;5116893;28;20018;-67
2021/01/13 22:06:34;;;;;;;3.55;2.03;;;9.20;99.90;;;;;;5105171;28;20401;-67
2021/01/13 22:09:00;;;;;;;9.20;3.40;;;9.20;99.90;;;;;;5117765;28;20051;-67
2021/01/13 22:11:26;;;;;;;10.63;2.20;;;9.20;99.90;;;;;;5117699;28;20027;-67
2021/01/13 22:13:53;;;;;;;10.07;2.42;;;9.10;99.90;;;;;;5117687;28;20023;-67
2021/01/13 22:16:19;;;;;;;8.32;2.00;;;9.00;99.90;;;;;;5117996;28;20020;-67
2021/01/13 22:18:46;;;;;;;6.60;2.03;;;9.10;99.90;;;;;;5117543;28;20037;-67
2021/01/13 22:21:19;;;;;;;7.38;2.35;;;9.10;99.90;;;;;;5117818;28;20490;-67
2021/01/13 22:23:46;;;;;;;5.95;1.65;;;9.10;99.90;;;;;;5118918;28;20031;-67
2021/01/13 22:26:17;;;;;;;5.45;1.80;;;9.00;99.90;;;;;;5122016;28;20544;-67
2021/01/13 22:28:44;;;;;;;8.20;2.33;;;9.20;99.90;;;;;;5121948;28;20502;-67
2021/01/13 22:31:14;;;;;;;8.63;1.60;;;9.00;99.90;;;;;;5121837;28;20023;-67
2021/01/13 22:33:41;;;;;;;3.08;1.52;;;9.00;99.90;;;;;;5121386;28;20024;-67
2021/01/13 22:36:18;;;;;;;3.20;1.40;;;9.20;99.90;;;;;;5121809;28;20027;-67
2021/01/13 22:38:45;;;;;;;5.65;1.40;;;9.10;99.90;;;;;;5121541;28;20032;-67
2021/01/13 22:41:11;;;;;;;4.85;1.70;;;9.10;99.90;;;;;;5121536;28;20023;-67
2021/01/13 22:43:38;;;;;;;7.68;2.22;;;9.10;99.90;;;;;;5121311;28;20069;-67
2021/01/13 22:46:04;;;;;;;5.63;2.30;;;9.20;99.90;;;;;;5121596;28;20024;-67
2021/01/13 22:48:31;;;;;;;5.65;2.20;;;9.30;99.90;;;;;;5120964;28;20399;-67
2021/01/13 22:50:57;;;;;;;5.93;1.67;;;9.40;99.90;;;;;;5121462;28;20022;-67
2021/01/13 22:53:23;;;;;;;;;;;9.10;99.90;;;;;;5121627;28;20035;-67
2021/01/13 22:55:53;;;;;;;9.50;1.48;;;9.00;99.90;;;;;;5121560;28;19903;-67
2021/01/13 22:58:19;;;;;;;6.88;1.65;;;9.10;99.90;;;;;;5121281;28;20023;-67
2021/01/13 23:00:45;;;;;;;10.82;2.03;;;9.00;99.90;;;;;;5121190;28;20107;-67
2021/01/13 23:03:12;;;;;;;19.33;2.65;;;9.10;99.90;;;;;;5120689;28;20028;-67
2021/01/13 23:05:39;;;;;;;5.25;1.60;;;9.10;99.90;;;;;;5107136;28;20080;-67
2021/01/13 23:08:05;;;;;;;8.50;1.83;;;9.20;99.90;;;;;;5121354;28;20023;-67
2021/01/13 23:10:31;;;;;;;3.53;1.40;;;9.20;99.90;;;;;;5121063;27;20020;-67
2021/01/13 23:12:57;;;;;;;;;;;9.00;99.90;;;;;;5121314;28;20051;-67
2021/01/13 23:15:22;;;;;;;7.55;1.73;;;9.20;99.90;;;;;;5120872;28;19994;-67
2021/01/13 23:17:48;;;;;;;;;;;9.20;99.90;;;;;;5121263;28;20043;-67
2021/01/13 23:20:14;;;;;;;5.68;1.40;;;9.10;99.90;;;;;;5120712;28;19963;-67
2021/01/13 23:22:41;;;;;;;;;;;9.30;99.90;;;;;;5121395;28;20081;-67
2021/01/13 23:25:13;;;;;;;7.10;1.70;;;9.10;99.90;;;;;;5120904;28;19904;-67
2021/01/13 23:27:40;;;;;;;5.10;1.40;;;9.00;99.90;;;;;;5120957;28;20043;-67
2021/01/13 23:30:27;;;;;;;8.05;2.10;;;9.30;99.90;;;;;;5120483;28;20372;-67
2021/01/13 23:32:54;;;;;;;;;;;9.10;99.90;;;;;;5120900;28;20027;-67
2021/01/13 23:35:26;;;;;;;5.47;1.27;;;9.10;99.90;;;;;;5119849;28;20383;-67
2021/01/13 23:37:53;;;;;;;3.83;1.30;;;9.10;99.90;;;;;;5120734;28;20076;-67
2021/01/13 23:40:19;;;;;;;4.72;2.13;;;8.90;99.90;;;;;;5120300;28;20487;-67
2021/01/13 23:42:44;;;;;;;;;;;8.70;99.90;;;;;;5120815;28;20096;-67
2021/01/13 23:45:10;;;;;;;5.90;1.60;;;8.80;99.90;;;;;;5120699;28;19904;-67
2021/01/13 23:47:37;;;;;;;5.88;1.55;;;8.60;99.90;;;;;;5120169;28;20064;-67
2021/01/13 23:50:07;;;;;;;2.60;1.50;;;8.60;99.90;;;;;;5119951;28;20509;-67
2021/01/13 23:52:33;;;;;;;6.07;1.80;;;8.30;99.90;;;;;;5120131;28;20051;-67
2021/01/13 23:55:07;;;;;;;9.77;2.80;;;8.40;99.90;;;;;;5119990;28;20372;-67
2021/01/13 23:57:34;;;;;;;6.55;1.73;;;8.40;99.90;;;;;;5119970;27;20031;-67
